Time;durP1;ratioP1;P1;durP2;ratioP2;P2;SDS_P1;SDS_P2;PMS_P1;PMS_P2;Temp;Humidity;BMP_temperature;BMP_pressure;BME280_temperature;BME280_humidity;BME280_pressure;Samples;Min_cycle;Max_cycle;Signal;HPM_P1;HPM_P2
2022/06/08 00:00:44;;;;;;;12.50;11.30;;;;;;;17.44;76.70;99794.84;5030974;28;20479;-68
2022/06/08 00:03:16;;;;;;;13.20;12.00;;;;;;;17.44;76.52;99789.47;5036043;28;20504;-69
2022/06/08 00:05:42;;;;;;;12.77;11.57;;;;;;;17.34;76.90;99797.06;5022938;28;20565;-69
2022/06/08 00:08:09;;;;;;;12.33;11.20;;;;;;;17.41;76.99;99788.00;5025746;28;20442;-69
2022/06/08 00:10:36;;;;;;;14.27;12.97;;;;;;;17.44;76.81;99786.75;5038905;28;20480;-69
2022/06/08 00:13:06;;;;;;;13.13;11.83;;;;;;;17.43;77.19;99793.19;5102401;28;20507;-69
2022/06/08 00:15:34;;;;;;;15.10;13.63;;;;;;;17.37;77.52;99788.56;5085666;28;20474;-69
2022/06/08 00:18:02;;;;;;;14.60;13.10;;;;;;;17.29;77.77;99789.53;5019987;28;20480;-69
2022/06/08 00:20:29;;;;;;;15.63;13.77;;;;;;;17.23;77.92;99790.34;5019171;28;20474;-69
2022/06/08 00:22:56;;;;;;;14.47;12.97;;;;;;;17.22;78.34;99791.34;5018980;28;20466;-69
2022/06/08 00:25:23;;;;;;;14.00;12.70;;;;;;;17.17;78.12;99789.25;5018779;28;20447;-68
2022/06/08 00:27:50;;;;;;;14.90;13.40;;;;;;;17.22;78.40;99789.50;5020048;28;20447;-68
2022/06/08 00:30:18;;;;;;;15.27;13.73;;;;;;;17.20;78.62;99788.84;5018413;28;20467;-68
2022/06/08 00:32:46;;;;;;;16.67;14.73;;;;;;;17.24;78.35;99778.50;5020114;28;20460;-68
2022/06/08 00:35:13;;;;;;;16.97;15.27;;;;;;;17.22;78.56;99776.00;5018952;28;20857;-68
2022/06/08 00:37:40;;;;;;;15.67;14.00;;;;;;;17.36;78.08;99774.25;5019868;28;20443;-69
2022/06/08 00:40:10;;;;;;;17.00;14.90;;;;;;;17.17;78.69;99769.50;5018150;28;20451;-68
2022/06/08 00:42:37;;;;;;;17.23;15.43;;;;;;;17.25;78.71;99778.28;5019911;28;20538;-69
2022/06/08 00:45:07;;;;;;;14.50;13.10;;;;;;;17.31;78.49;99785.63;4999301;28;20465;-69
2022/06/08 00:47:38;;;;;;;15.90;14.40;;;;;;;17.11;79.51;99785.44;5013656;28;20478;-68
2022/06/08 00:50:07;;;;;;;15.67;14.13;;;;;;;17.28;78.97;99775.19;5005479;28;20518;-69
2022/06/08 00:52:34;;;;;;;15.23;13.60;;;;;;;17.27;79.20;99773.56;5018973;28;20454;-69
2022/06/08 00:55:04;;;;;;;16.47;14.87;;;;;;;17.15;79.51;99775.13;5018522;28;20494;-69
2022/06/08 00:57:37;;;;;;;16.30;14.57;;;;;;;17.34;78.67;99773.56;5084498;28;20466;-70
2022/06/08 01:00:08;;;;;;;15.83;14.23;;;;;;;17.23;79.11;99772.25;5120696;27;20850;-69
2022/06/08 01:02:37;;;;;;;16.50;14.93;;;;;;;17.23;79.17;99763.31;5122953;27;20488;-69
2022/06/08 01:05:24;;;;;;;15.40;13.90;;;;;;;17.17;79.43;99766.78;5022286;28;20955;-69
2022/06/08 01:07:53;;;;;;;16.50;14.90;;;;;;;17.08;79.78;99763.41;5090197;27;20464;-69
2022/06/08 01:10:22;;;;;;;16.87;15.27;;;;;;;17.05;80.38;99759.22;5121175;28;20454;-69
2022/06/08 01:12:49;;;;;;;16.70;15.10;;;;;;;17.16;80.05;99760.56;5128047;27;20504;-69
2022/06/08 01:15:19;;;;;;;17.70;15.73;;;;;;;17.23;79.95;99761.44;5121431;28;20457;-69
2022/06/08 01:17:48;;;;;;;15.50;14.10;;;;;;;17.27;79.89;99760.03;5122116;28;20445;-69
2022/06/08 01:20:15;;;;;;;17.40;15.80;;;;;;;17.19;79.99;99753.94;5121838;28;20456;-69
2022/06/08 01:22:44;;;;;;;18.33;16.50;;;;;;;17.01;80.51;99749.00;5121583;28;20465;-70
2022/06/08 01:25:15;;;;;;;16.13;14.60;;;;;;;17.05;80.81;99748.44;5120323;28;20458;-69
2022/06/08 01:28:06;;;;;;;17.43;15.70;;;;;;;16.94;81.71;99749.81;5122229;28;20501;-70
2022/06/08 01:30:37;;;;;;;19.23;17.27;;;;;;;16.85;82.00;99745.53;5121865;27;20538;-70
2022/06/08 01:33:34;;;;;;;18.67;16.80;;;;;;;16.92;82.10;99746.44;5125775;27;20480;-69
2022/06/08 01:36:18;;;;;;;18.00;16.30;;;;;;;16.97;81.63;99745.88;5119657;28;20474;-68
2022/06/08 01:38:50;;;;;;;19.50;17.40;;;;;;;17.01;81.75;99746.31;5112745;28;20444;-68
2022/06/08 01:41:52;;;;;;;19.37;17.27;;;;;;;16.87;82.00;99738.13;5106739;28;20482;-68
2022/06/08 01:44:39;;;;;;;18.50;16.60;;;;;;;16.90;81.80;99734.16;5104454;28;20443;-68
2022/06/08 01:47:11;;;;;;;18.87;16.93;;;;;;;16.78;82.34;99738.41;5122272;27;20480;-68
2022/06/08 01:49:41;;;;;;;18.97;17.10;;;;;;;16.75;82.14;99747.69;5121421;28;21141;-68
2022/06/08 01:52:25;;;;;;;19.83;17.73;;;;;;;16.68;82.54;99736.00;5121595;28;20474;-68
2022/06/08 01:55:03;;;;;;;21.43;19.03;;;;;;;16.54;82.87;99735.03;5119235;28;20477;-68
2022/06/08 01:57:39;;;;;;;20.67;18.67;;;;;;;16.48;83.63;99739.34;5121507;28;20466;-67
2022/06/08 02:00:09;;;;;;;25.23;22.03;;;;;;;16.43;84.08;99730.16;5121892;28;20454;-68
2022/06/08 02:02:40;;;;;;;22.57;20.17;;;;;;;16.51;83.92;99738.16;5119769;28;20473;-66
2022/06/08 02:05:11;;;;;;;23.33;20.97;;;;;;;16.49;83.37;99734.78;5118920;28;20450;-69
2022/06/08 02:07:42;;;;;;;24.53;22.03;;;;;;;16.54;83.74;99727.81;5120981;28;20454;-67
2022/06/08 02:10:17;;;;;;;23.23;20.53;;;;;;;16.62;83.64;99737.63;5119966;28;20457;-69
2022/06/08 02:12:47;;;;;;;23.43;20.97;;;;;;;16.58;83.83;99730.94;5121491;28;20853;-67
2022/06/08 02:15:17;;;;;;;24.00;20.73;;;;;;;16.65;84.30;99736.41;5120467;28;20450;-68
2022/06/08 02:17:48;;;;;;;24.90;22.23;;;;;;;16.73;83.33;99730.88;5121781;28;20430;-67
2022/06/08 02:20:18;;;;;;;23.10;20.80;;;;;;;16.69;83.48;99732.28;5120440;28;20438;-68
2022/06/08 02:22:49;;;;;;;22.90;20.47;;;;;;;16.68;83.58;99725.22;5130284;28;20477;-68
2022/06/08 02:25:21;;;;;;;23.27;20.80;;;;;;;16.68;83.63;99730.59;5120417;28;20454;-67
2022/06/08 02:27:52;;;;;;;23.60;20.80;;;;;;;16.56;83.87;99723.03;5121758;28;20464;-68
2022/06/08 02:30:21;;;;;;;24.17;21.43;;;;;;;16.68;84.04;99715.28;5119976;28;20455;-68
2022/06/08 02:35:41;;;;;;;28.60;20.33;;;;;;;16.70;83.25;99715.06;5124533;28;20475;-66
2022/06/08 02:38:14;;;;;;;23.40;21.00;;;;;;;16.84;82.51;99708.78;5125208;28;20435;-66
2022/06/08 02:40:45;;;;;;;25.30;21.30;;;;;;;16.67;83.15;99718.16;5123995;28;21371;-66
2022/06/08 02:43:20;;;;;;;23.40;21.00;;;;;;;16.76;82.97;99707.03;5107741;28;20506;-67
2022/06/08 02:45:55;;;;;;;22.73;20.00;;;;;;;16.72;82.96;99715.72;5124599;27;20473;-67
2022/06/08 02:48:22;;;;;;;23.87;20.47;;;;;;;16.78;83.09;99701.44;5133670;27;20456;-67
2022/06/08 02:50:51;;;;;;;22.43;20.13;;;;;;;16.74;83.25;99705.56;5122064;28;20469;-68
2022/06/08 02:53:45;;;;;;;20.77;18.67;;;;;;;16.84;82.44;99707.94;5115503;28;20435;-68
2022/06/08 02:56:19;;;;;;;20.03;17.50;;;;;;;16.77;82.61;99707.88;5107617;28;20470;-67
2022/06/08 02:58:50;;;;;;;18.77;16.77;;;;;;;16.83;82.33;99715.19;5112648;28;20450;-67
2022/06/08 03:01:26;;;;;;;18.90;17.00;;;;;;;16.75;82.65;99705.38;5113125;28;20473;-66
2022/06/08 03:03:58;;;;;;;18.40;16.67;;;;;;;16.80;82.56;99701.25;5123796;28;20473;-66
2022/06/08 03:06:27;;;;;;;22.80;16.60;;;;;;;16.77;82.09;99699.78;5124167;28;20477;-67
2022/06/08 03:08:57;;;;;;;18.53;16.23;;;;;;;16.72;82.13;99699.53;5124029;28;20458;-68
2022/06/08 03:11:46;;;;;;;18.17;16.30;;;;;;;16.84;81.59;99702.53;5124272;28;20477;-67
2022/06/08 03:14:15;;;;;;;16.70;15.00;;;;;;;16.77;81.88;99702.47;5124387;28;20468;-67
2022/06/08 03:17:03;;;;;;;19.27;16.30;;;;;;;16.69;82.13;99706.13;5123735;28;20469;-67
2022/06/08 03:19:32;;;;;;;18.77;16.37;;;;;;;16.53;82.73;99699.13;5124859;28;20465;-67
2022/06/08 03:21:59;;;;;;;16.63;14.93;;;;;;;16.79;82.19;99707.66;5124287;28;20466;-68
2022/06/08 03:24:26;;;;;;;17.87;15.97;;;;;;;16.80;81.76;99702.06;5124161;28;20473;-67
2022/06/08 03:26:57;;;;;;;20.23;18.10;;;;;;;16.72;82.11;99692.25;5123633;28;20484;-67
2022/06/08 03:29:26;;;;;;;25.17;21.37;;;;;;;16.58;82.27;99701.25;5124040;28;20450;-68
2022/06/08 03:31:53;;;;;;;28.67;22.37;;;;;;;16.58;82.62;99709.38;5123517;28;20505;-67
2022/06/08 03:34:20;;;;;;;26.47;21.07;;;;;;;16.69;82.55;99702.59;5124428;28;20784;-68
2022/06/08 03:36:47;;;;;;;29.23;23.60;;;;;;;16.60;82.77;99696.50;5124008;28;20461;-68
2022/06/08 03:39:14;;;;;;;39.47;28.07;;;;;;;16.45;83.26;99701.94;5123621;28;20446;-68
2022/06/08 03:41:41;;;;;;;32.53;26.97;;;;;;;16.50;83.32;99694.13;5122891;28;20474;-68
2022/06/08 03:44:09;;;;;;;35.90;27.33;;;;;;;16.74;82.74;99689.34;5122846;28;20470;-68
2022/06/08 03:46:39;;;;;;;36.23;27.33;;;;;;;16.49;82.58;99678.97;5122126;28;20470;-68
2022/06/08 03:49:06;;;;;;;31.30;25.30;;;;;;;16.39;83.02;99678.47;5124080;28;20454;-68
2022/06/08 03:51:34;;;;;;;33.90;24.87;;;;;;;16.48;82.82;99674.59;5123202;28;20470;-68
2022/06/08 03:54:09;;;;;;;34.43;27.50;;;;;;;16.41;83.29;99684.50;5122727;28;20446;-68
2022/06/08 03:56:37;;;;;;;35.40;28.10;;;;;;;16.57;83.22;99684.22;5129866;27;20523;-68
2022/06/08 03:59:04;;;;;;;29.67;26.10;;;;;;;16.76;81.78;99682.72;5138251;27;20449;-67
2022/06/08 04:01:32;;;;;;;32.97;27.20;;;;;;;16.62;81.90;99688.22;5128202;27;20477;-68
2022/06/08 04:03:59;;;;;;;35.60;26.53;;;;;;;16.79;81.52;99688.75;5123618;27;20488;-68
2022/06/08 04:06:26;;;;;;;33.53;26.93;;;;;;;17.00;80.97;99680.66;5123481;27;20484;-68
2022/06/08 04:08:54;;;;;;;34.20;27.10;;;;;;;16.82;81.35;99689.22;5122731;28;20458;-68
2022/06/08 04:11:20;;;;;;;40.43;29.57;;;;;;;16.86;81.40;99685.13;5126849;27;20477;-66
2022/06/08 04:13:47;;;;;;;31.60;26.30;;;;;;;17.00;80.61;99682.53;5110407;28;20439;-66
2022/06/08 04:16:15;;;;;;;38.60;28.77;;;;;;;16.88;81.52;99679.53;5118027;27;20479;-67
2022/06/08 04:18:43;;;;;;;41.57;31.50;;;;;;;16.81;81.66;99686.72;5134972;27;20449;-66
2022/06/08 04:21:12;;;;;;;38.47;29.57;;;;;;;16.84;81.40;99678.25;5135651;27;20488;-66
2022/06/08 04:23:41;;;;;;;38.03;29.47;;;;;;;16.99;80.76;99673.59;5123058;28;20478;-66
2022/06/08 04:26:08;;;;;;;41.50;32.40;;;;;;;16.97;80.74;99675.66;5124575;27;20480;-66
2022/06/08 04:28:36;;;;;;;39.87;31.23;;;;;;;16.96;80.79;99676.69;5129354;27;20446;-66
2022/06/08 04:31:04;;;;;;;35.70;30.97;;;;;;;16.90;80.87;99678.28;5121295;28;20922;-66
2022/06/08 04:33:31;;;;;;;40.00;31.63;;;;;;;16.76;81.65;99679.19;5108309;28;20449;-66
2022/06/08 04:35:59;;;;;;;36.37;29.50;;;;;;;16.70;81.47;99675.41;5122276;28;20466;-66
2022/06/08 04:38:27;;;;;;;40.03;31.33;;;;;;;16.51;81.79;99676.91;5123418;28;20442;-66
2022/06/08 04:40:54;;;;;;;39.30;31.40;;;;;;;16.54;81.45;99679.22;5121589;28;20474;-68
2022/06/08 04:43:21;;;;;;;39.50;31.80;;;;;;;16.86;80.53;99679.72;5122641;27;20478;-69
2022/06/08 04:45:48;;;;;;;37.87;29.93;;;;;;;16.87;79.72;99677.84;5129552;27;20468;-68
2022/06/08 04:48:15;;;;;;;39.33;29.90;;;;;;;17.61;77.54;99671.06;5129469;27;20448;-68
2022/06/08 04:50:42;;;;;;;34.00;27.73;;;;;;;17.90;75.52;99677.22;5138329;27;20502;-68
2022/06/08 04:53:11;;;;;;;35.57;29.93;;;;;;;18.32;74.39;99672.56;5120346;28;20435;-67
2022/06/08 04:55:37;;;;;;;32.43;28.50;;;;;;;19.56;69.48;99677.31;5120512;27;20906;-68
2022/06/08 04:58:04;;;;;;;30.40;27.13;;;;;;;18.97;70.37;99681.81;5135626;27;20450;-68
2022/06/08 05:00:31;;;;;;;29.60;25.73;;;;;;;19.14;70.20;99682.19;5124043;27;20469;-68
2022/06/08 05:02:58;;;;;;;30.97;25.67;;;;;;;18.95;70.57;99691.19;5120596;28;20446;-68
2022/06/08 05:05:28;;;;;;;28.47;25.53;;;;;;;18.95;71.06;99688.47;5120845;28;20450;-68
2022/06/08 05:07:56;;;;;;;26.83;23.93;;;;;;;18.77;71.56;99687.19;5121112;28;20445;-68
2022/06/08 05:10:27;;;;;;;22.07;19.57;;;;;;;18.35;72.20;99682.97;5121091;28;20488;-67
2022/06/08 05:12:54;;;;;;;29.00;21.53;;;;;;;18.75;72.26;99693.88;5114317;28;20446;-68
2022/06/08 05:15:23;;;;;;;20.97;18.87;;;;;;;18.76;71.30;99690.94;5119855;28;20454;-67
2022/06/08 05:17:50;;;;;;;22.30;20.10;;;;;;;19.18;69.80;99699.72;5121446;28;20445;-69
2022/06/08 05:20:19;;;;;;;19.20;17.20;;;;;;;19.40;68.59;99690.50;5121413;28;20446;-67
2022/06/08 05:22:47;;;;;;;19.57;17.57;;;;;;;18.99;69.68;99687.00;5120401;28;20450;-67
2022/06/08 05:25:18;;;;;;;20.60;17.97;;;;;;;19.69;67.54;99689.16;5118493;28;20881;-68
2022/06/08 05:27:46;;;;;;;20.23;17.53;;;;;;;19.84;66.33;99681.63;5121188;28;20484;-67
2022/06/08 05:30:13;;;;;;;18.13;16.23;;;;;;;20.57;64.11;99680.38;5115534;28;20917;-68
2022/06/08 05:32:41;;;;;;;18.23;16.33;;;;;;;20.00;65.54;99684.88;5119374;28;20450;-67
2022/06/08 05:35:09;;;;;;;18.33;16.50;;;;;;;20.20;64.60;99691.03;5119350;28;20427;-68
2022/06/08 05:37:36;;;;;;;18.30;16.60;;;;;;;20.90;62.14;99692.91;5120595;28;20871;-67
2022/06/08 05:40:05;;;;;;;19.93;16.40;;;;;;;20.30;63.51;99701.44;5119688;28;20453;-68
2022/06/08 05:42:32;;;;;;;18.83;15.37;;;;;;;19.86;64.67;99689.53;5120245;28;20446;-67
2022/06/08 05:45:00;;;;;;;17.00;14.30;;;;;;;19.86;64.63;99695.81;5119494;28;20470;-66
2022/06/08 05:47:27;;;;;;;17.97;16.30;;;;;;;21.10;61.50;99695.41;5139539;27;20522;-66
2022/06/08 05:49:54;;;;;;;15.20;13.67;;;;;;;22.64;55.61;99701.78;5140849;27;20445;-66
2022/06/08 05:52:21;;;;;;;14.50;13.00;;;;;;;23.64;52.66;99692.69;5124354;27;20559;-67
2022/06/08 05:54:47;;;;;;;13.60;12.20;;;;;;;24.69;48.49;99680.78;5119404;28;20481;-66
2022/06/08 05:57:15;;;;;;;11.87;10.77;;;;;;;24.03;50.19;99683.94;5120341;28;20465;-66
2022/06/08 05:59:44;;;;;;;13.03;11.77;;;;;;;24.33;49.24;99680.13;5120169;28;20537;-66
2022/06/08 06:02:14;;;;;;;13.00;11.80;;;;;;;23.81;50.07;99686.50;5119157;28;20474;-66
2022/06/08 06:04:42;;;;;;;11.10;10.00;;;;;;;23.36;52.20;99685.25;5120384;28;20500;-67
2022/06/08 06:07:10;;;;;;;11.17;10.07;;;;;;;24.84;48.46;99681.03;5119369;28;20466;-66
2022/06/08 06:09:37;;;;;;;9.77;8.87;;;;;;;25.39;46.55;99682.16;5119673;28;20482;-66
2022/06/08 06:12:05;;;;;;;11.23;9.50;;;;;;;25.06;47.02;99680.28;5119718;28;20477;-67
2022/06/08 06:14:32;;;;;;;11.90;10.80;;;;;;;23.18;51.74;99686.22;5120326;28;20426;-67
2022/06/08 06:16:59;;;;;;;11.37;10.37;;;;;;;23.07;51.82;99681.56;5120101;28;20492;-66
2022/06/08 06:19:28;;;;;;;11.30;10.40;;;;;;;23.59;50.96;99681.66;5119709;28;20464;-66
2022/06/08 06:21:55;;;;;;;11.50;10.50;;;;;;;23.90;49.94;99678.75;5119523;28;20478;-66
2022/06/08 06:24:22;;;;;;;10.70;9.70;;;;;;;23.42;49.89;99688.94;5119214;28;20486;-66
2022/06/08 06:26:49;;;;;;;10.20;9.40;;;;;;;23.22;50.97;99684.66;5137375;27;20473;-66
2022/06/08 06:29:16;;;;;;;10.10;9.20;;;;;;;24.16;49.93;99678.16;5140805;28;20449;-66
2022/06/08 06:31:46;;;;;;;11.83;10.70;;;;;;;24.58;48.41;99657.91;5123819;28;20485;-66
2022/06/08 06:34:15;;;;;;;10.17;9.13;;;;;;;25.63;45.32;99671.81;5132534;28;20451;-67
2022/06/08 06:36:45;;;;;;;9.47;8.57;;;;;;;24.46;47.06;99660.69;5140916;28;20465;-67
2022/06/08 06:39:12;;;;;;;7.67;6.87;;;;;;;25.46;44.43;99669.13;5135793;28;20450;-66
2022/06/08 06:41:39;;;;;;;6.87;6.27;;;;;;;27.80;40.00;99662.41;5119665;28;20474;-67
2022/06/08 06:44:07;;;;;;;6.23;5.73;;;;;;;27.40;40.87;99660.31;5125245;28;20568;-68
2022/06/08 06:46:34;;;;;;;6.77;6.03;;;;;;;27.64;39.52;99660.72;5118175;28;20497;-68
2022/06/08 06:49:01;;;;;;;5.17;4.77;;;;;;;28.52;36.87;99656.28;5120345;28;20434;-68
2022/06/08 06:51:28;;;;;;;6.27;3.97;;;;;;;27.56;38.14;99655.72;5120099;28;20491;-68
2022/06/08 06:53:57;;;;;;;5.93;4.43;;;;;;;26.74;39.53;99653.28;5119274;28;20520;-68
2022/06/08 06:56:24;;;;;;;5.13;4.63;;;;;;;27.91;38.23;99649.56;5100944;28;20540;-68
2022/06/08 06:58:53;;;;;;;7.43;5.33;;;;;;;27.93;37.97;99660.28;5099699;28;20526;-68
2022/06/08 07:01:20;;;;;;;5.00;4.57;;;;;;;25.78;41.63;99653.91;5099008;28;20466;-68
2022/06/08 07:03:47;;;;;;;3.93;3.63;;;;;;;25.96;40.10;99659.09;5099820;28;20518;-68
2022/06/08 07:06:14;;;;;;;4.57;4.13;;;;;;;26.70;39.76;99657.66;5098952;28;20494;-68
2022/06/08 07:08:41;;;;;;;4.60;4.03;;;;;;;28.14;37.97;99656.50;5099063;28;20534;-67
2022/06/08 07:13:53;;;;;;;4.67;3.50;;;;;;;24.73;42.68;99654.63;5100475;28;20479;-68
2022/06/08 07:16:20;;;;;;;3.80;3.50;;;;;;;24.51;44.18;99652.59;5097606;28;20478;-68
2022/06/08 07:18:47;;;;;;;4.13;3.47;;;;;;;23.77;45.59;99650.63;5100524;28;20423;-68
2022/06/08 07:21:14;;;;;;;3.17;2.57;;;;;;;23.29;46.11;99647.16;5101973;28;20471;-67
2022/06/08 07:23:44;;;;;;;3.00;2.30;;;;;;;23.64;44.44;99637.25;5102840;28;20439;-67
2022/06/08 07:26:13;;;;;;;3.40;2.30;;;;;;;23.72;45.28;99645.06;5103003;28;20867;-67
2022/06/08 07:28:40;;;;;;;3.83;2.87;;;;;;;25.20;41.71;99643.28;5104402;28;20434;-67
2022/06/08 07:31:08;;;;;;;2.90;2.40;;;;;;;25.49;41.52;99634.94;5102010;28;20477;-67
2022/06/08 07:33:35;;;;;;;3.23;2.30;;;;;;;25.05;41.50;99632.13;5103578;28;20431;-67
2022/06/08 07:36:03;;;;;;;4.13;2.27;;;;;;;24.87;42.27;99634.06;5102478;28;21022;-67
2022/06/08 07:38:30;;;;;;;4.00;3.10;;;;;;;24.59;42.91;99632.25;5102994;28;20466;-67
2022/06/08 07:40:57;;;;;;;4.60;3.63;;;;;;;23.84;45.58;99632.25;5101960;28;20471;-67
2022/06/08 07:43:25;;;;;;;4.17;3.60;;;;;;;23.99;45.00;99625.41;5102405;28;20446;-67
2022/06/08 07:45:52;;;;;;;3.90;2.43;;;;;;;23.82;45.19;99628.94;5100764;28;20477;-67
2022/06/08 07:51:04;;;;;;;3.67;3.17;;;;;;;24.43;43.59;99625.66;5102568;28;20524;-67
2022/06/08 07:53:31;;;;;;;5.10;3.73;;;;;;;24.69;43.67;99626.13;5102884;28;20443;-67
2022/06/08 07:55:58;;;;;;;6.30;4.60;;;;;;;24.76;42.58;99624.88;5102181;28;20479;-67
2022/06/08 07:58:26;;;;;;;5.50;4.40;;;;;;;25.47;42.74;99623.44;5102490;28;20453;-67
2022/06/08 08:00:53;;;;;;;3.67;3.37;;;;;;;25.97;40.90;99618.81;5101964;28;20474;-68
2022/06/08 08:03:21;;;;;;;4.77;3.70;;;;;;;25.18;41.10;99618.91;5103283;28;20423;-67
2022/06/08 08:05:48;;;;;;;7.00;3.20;;;;;;;24.08;43.87;99609.47;5101866;28;20540;-67
2022/06/08 08:08:17;;;;;;;2.97;2.53;;;;;;;23.92;45.32;99613.81;5102286;28;20836;-67
2022/06/08 08:10:45;;;;;;;3.40;3.10;;;;;;;24.26;44.05;99611.97;5101864;28;20514;-67
2022/06/08 08:13:12;;;;;;;3.40;3.10;;;;;;;24.37;43.40;99602.06;5103240;28;20423;-67
2022/06/08 08:15:42;;;;;;;4.00;2.77;;;;;;;24.53;43.51;99608.59;5100429;28;20459;-68
2022/06/08 08:18:10;;;;;;;2.70;2.50;;;;;;;24.77;42.07;99606.56;5102527;28;20439;-67
2022/06/08 08:20:37;;;;;;;2.07;1.63;;;;;;;24.99;41.06;99598.41;5102005;28;20470;-67
2022/06/08 08:23:04;;;;;;;2.47;1.70;;;;;;;25.18;39.31;99590.72;5102527;28;20501;-67
2022/06/08 08:25:31;;;;;;;2.57;2.10;;;;;;;25.54;38.81;99596.69;5100677;28;20474;-67
2022/06/08 08:27:59;;;;;;;2.90;1.97;;;;;;;26.20;37.61;99595.78;5102614;28;20459;-68
2022/06/08 08:30:28;;;;;;;2.40;2.20;;;;;;;27.22;36.20;99592.94;5100763;28;20463;-67
2022/06/08 08:32:57;;;;;;;2.70;1.50;;;;;;;27.55;35.21;99593.66;5102816;28;20450;-68
2022/06/08 08:35:24;;;;;;;3.00;2.60;;;;;;;28.38;33.23;99590.00;5100875;28;20435;-68
2022/06/08 08:37:53;;;;;;;3.53;2.17;;;;;;;27.87;34.18;99585.25;5101410;28;20542;-68
2022/06/08 08:40:31;;;;;;;3.07;2.50;;;;;;;28.06;33.72;99582.84;5101410;28;20451;-68
2022/06/08 08:42:59;;;;;;;3.87;2.70;;;;;;;28.17;33.64;99573.53;5104845;28;20788;-68
2022/06/08 08:45:29;;;;;;;2.30;1.77;;;;;;;28.98;34.26;99573.75;5120729;28;20458;-68
2022/06/08 08:48:04;;;;;;;2.63;1.80;;;;;;;30.30;31.28;99569.78;5107796;28;20447;-68
2022/06/08 08:50:34;;;;;;;1.70;1.50;;;;;;;29.90;32.04;99558.78;5101029;28;20533;-68
2022/06/08 08:53:05;;;;;;;2.97;1.77;;;;;;;29.04;31.25;99558.88;5102304;28;20415;-68
2022/06/08 08:55:40;;;;;;;2.00;1.50;;;;;;;28.08;33.07;99558.66;5111177;28;20519;-68
2022/06/08 08:58:12;;;;;;;3.30;2.50;;;;;;;28.34;32.47;99559.50;5105890;28;20443;-68
2022/06/08 09:00:40;;;;;;;2.90;1.90;;;;;;;28.97;32.27;99550.06;5101438;28;20470;-68
2022/06/08 09:03:28;;;;;;;1.93;1.50;;;;;;;28.22;32.51;99541.63;5102284;28;20434;-68
2022/06/08 09:05:57;;;;;;;1.60;1.50;;;;;;;28.72;32.21;99550.97;5099469;28;20504;-68
2022/06/08 09:08:25;;;;;;;1.60;1.50;;;;;;;27.54;33.63;99548.09;5101603;28;20467;-68
2022/06/08 09:10:53;;;;;;;2.33;1.60;;;;;;;28.70;31.29;99542.16;5100452;28;20473;-68
2022/06/08 09:13:23;;;;;;;3.23;2.00;;;;;;;28.44;32.99;99541.34;5100883;28;20448;-68
2022/06/08 09:15:52;;;;;;;2.80;1.70;;;;;;;27.97;33.35;99543.28;5099687;28;20557;-67
2022/06/08 09:18:23;;;;;;;4.43;1.90;;;;;;;26.80;34.47;99548.00;5101329;28;20427;-68
2022/06/08 09:20:52;;;;;;;4.33;1.70;;;;;;;28.55;33.27;99537.50;5099440;28;20470;-68
2022/06/08 09:23:25;;;;;;;1.50;1.33;;;;;;;28.68;31.10;99530.63;5102101;28;20451;-68
2022/06/08 09:26:03;;;;;;;3.40;1.50;;;;;;;29.66;30.21;99533.81;5099144;28;20482;-67
2022/06/08 09:28:32;;;;;;;3.70;1.53;;;;;;;29.59;29.67;99528.63;5101071;28;20454;-67
2022/06/08 09:31:00;;;;;;;3.03;1.30;;;;;;;29.85;29.95;99534.00;5100602;28;20471;-67
2022/06/08 09:33:28;;;;;;;2.60;1.93;;;;;;;28.26;31.36;99526.22;5098694;28;20461;-68
2022/06/08 09:35:59;;;;;;;2.10;1.50;;;;;;;28.27;32.26;99530.63;5109756;28;20485;-67
2022/06/08 09:38:29;;;;;;;1.43;1.07;;;;;;;28.83;30.66;99522.31;5108097;28;20454;-67
2022/06/08 09:41:02;;;;;;;1.67;1.20;;;;;;;30.16;28.60;99526.31;5093899;28;21047;-67
2022/06/08 09:43:50;;;;;;;2.30;1.17;;;;;;;29.29;30.20;99515.84;5098615;28;20534;-67
2022/06/08 09:46:23;;;;;;;1.53;0.93;;;;;;;28.16;31.83;99511.41;5103483;28;20557;-68
2022/06/08 09:52:16;;;;;;;1.80;0.93;;;;;;;28.39;30.93;99513.88;5079573;28;20545;-67
2022/06/08 09:54:54;;;;;;;2.03;1.27;;;;;;;28.04;32.62;99510.03;5023956;28;20488;-68
2022/06/08 09:57:40;;;;;;;1.70;1.10;;;;;;;28.08;32.87;99494.63;5074639;28;20480;-68
2022/06/08 10:00:24;;;;;;;2.73;1.20;;;;;;;28.17;30.74;99496.56;5077103;28;20521;-68
2022/06/08 10:03:06;;;;;;;1.73;1.07;;;;;;;27.47;33.08;99493.44;5078867;28;20424;-68
2022/06/08 10:05:38;;;;;;;2.53;1.20;;;;;;;27.24;33.60;99501.03;5076093;28;20537;-68
2022/06/08 10:08:22;;;;;;;1.83;1.20;;;;;;;28.46;31.45;99493.22;5099734;28;20431;-68
2022/06/08 10:10:57;;;;;;;2.10;1.30;;;;;;;29.11;30.39;99496.09;5098655;28;20482;-67
2022/06/08 10:13:30;;;;;;;1.77;1.13;;;;;;;29.80;28.73;99489.94;5093868;28;20422;-67
2022/06/08 10:16:00;;;;;;;2.70;1.23;;;;;;;29.01;30.46;99498.88;5094952;28;20481;-68
2022/06/08 10:18:31;;;;;;;1.93;1.40;;;;;;;28.65;31.82;99493.50;5099332;28;20491;-68
2022/06/08 10:21:03;;;;;;;1.17;0.90;;;;;;;29.48;30.66;99480.22;5097407;28;20494;-68
2022/06/08 10:23:36;;;;;;;2.70;1.13;;;;;;;29.81;29.35;99486.91;5098763;28;20484;-68
2022/06/08 10:26:10;;;;;;;1.80;1.00;;;;;;;29.70;28.63;99481.72;5097008;28;20475;-68
2022/06/08 10:28:41;;;;;;;5.73;1.33;;;;;;;29.46;30.39;99475.00;5097992;28;20427;-68
2022/06/08 10:31:14;;;;;;;1.50;1.00;;;;;;;29.61;29.92;99471.31;5096368;28;20516;-68
2022/06/08 10:33:46;;;;;;;1.90;0.80;;;;;;;29.47;30.58;99468.38;5098646;28;20419;-68
2022/06/08 10:36:14;;;;;;;1.67;0.90;;;;;;;29.51;29.33;99465.88;5096557;28;20471;-68
2022/06/08 10:38:43;;;;;;;1.30;0.80;;;;;;;29.60;30.09;99469.69;5098205;28;20535;-68
2022/06/08 10:44:28;;;;;;;1.60;1.00;;;;;;;29.40;28.72;99456.84;5097087;28;20445;-68
2022/06/08 10:46:55;;;;;;;2.27;0.97;;;;;;;28.29;31.07;99465.22;5097231;28;20542;-68
2022/06/08 10:49:50;;;;;;;1.60;0.80;;;;;;;26.77;33.60;99462.69;5097644;28;20419;-67
2022/06/08 10:52:27;;;;;;;1.43;1.00;;;;;;;26.72;33.98;99460.78;5096668;28;20507;-67
2022/06/08 10:55:39;;;;;;;1.23;1.10;;;;;;;25.19;36.31;99450.16;5098184;28;20482;-67
2022/06/08 10:58:11;;;;;;;2.20;1.00;;;;;;;24.73;37.02;99458.63;5101681;28;20505;-67
2022/06/08 11:01:05;;;;;;;3.30;1.37;;;;;;;24.81;36.98;99471.03;5101349;28;20459;-67
2022/06/08 11:03:52;;;;;;;1.83;0.83;;;;;;;24.40;36.21;99464.97;5101239;28;20500;-67
2022/06/08 11:06:53;;;;;;;2.13;0.90;;;;;;;25.05;36.02;99460.66;5100040;28;20475;-67
2022/06/08 11:09:21;;;;;;;1.67;1.10;;;;;;;25.64;35.38;99468.16;5098162;28;20454;-67
2022/06/08 11:12:01;;;;;;;1.60;0.80;;;;;;;25.60;35.82;99461.53;5101177;28;20492;-67
2022/06/08 11:14:31;;;;;;;4.47;1.40;;;;;;;25.40;36.33;99469.53;5101471;28;20455;-67
2022/06/08 11:17:00;;;;;;;2.27;0.83;;;;;;;25.36;36.54;99467.34;5098657;28;20462;-67
2022/06/08 11:19:27;;;;;;;3.70;0.97;;;;;;;25.06;36.55;99467.78;5102302;28;20435;-67
2022/06/08 11:21:57;;;;;;;2.10;1.10;;;;;;;25.22;37.78;99455.09;5101469;28;20481;-67
2022/06/08 11:24:27;;;;;;;1.70;1.00;;;;;;;25.15;37.29;99460.78;5101112;28;20451;-67
2022/06/08 11:27:22;;;;;;;2.70;1.10;;;;;;;25.25;37.00;99457.34;5100984;28;20489;-67
2022/06/08 11:29:51;;;;;;;2.27;1.13;;;;;;;25.70;37.17;99455.34;5101652;28;20447;-67
2022/06/08 11:32:25;;;;;;;2.17;1.20;;;;;;;25.28;36.89;99442.34;5101270;28;20470;-67
2022/06/08 11:35:05;;;;;;;3.83;1.00;;;;;;;25.06;36.79;99445.91;5101998;28;20484;-67
2022/06/08 11:37:36;;;;;;;3.43;1.00;;;;;;;24.93;36.34;99435.34;5100377;28;20480;-67
2022/06/08 11:40:12;;;;;;;1.47;1.00;;;;;;;25.74;35.49;99440.88;5101374;28;20455;-67
2022/06/08 11:42:49;;;;;;;1.73;1.03;;;;;;;26.54;34.64;99431.84;5101309;28;20497;-67
2022/06/08 11:45:19;;;;;;;1.47;0.80;;;;;;;26.02;35.48;99428.00;5082576;28;20536;-67
2022/06/08 11:47:51;;;;;;;3.23;1.47;;;;;;;26.10;36.33;99437.63;5098896;28;20443;-67
2022/06/08 11:50:20;;;;;;;2.93;0.90;;;;;;;26.15;36.61;99428.63;5099649;28;21017;-68
2022/06/08 11:52:49;;;;;;;3.10;1.43;;;;;;;25.74;37.01;99429.94;5099101;28;20439;-67
2022/06/08 11:55:20;;;;;;;1.37;0.93;;;;;;;25.23;36.73;99428.59;5107300;28;20504;-67